Time;durP1;ratioP1;P1;durP2;ratioP2;P2;SDS_P1;SDS_P2;PMS_P1;PMS_P2;Temp;Humidity;BMP_temperature;BMP_pressure;BME280_temperature;BME280_humidity;BME280_pressure;Samples;Min_cycle;Max_cycle;Signal;HPM_P1;HPM_P2
2021/11/17 02:27:21;;;;;;;;;;;;;;;;;;5065872;28;19920;-51
2021/11/17 02:29:47;;;;;;;;;;;;;;;;;;5047840;28;19916;-52
2021/11/17 02:32:15;;;;;;;;;;;;;;;;;;5046628;28;19913;-50
2021/11/17 02:34:41;;;;;;;;;;;;;;;;;;5046689;28;19909;-48
2021/11/17 02:37:07;;;;;;;;;;;;;;;;;;5055564;28;19919;-51
2021/11/17 02:39:33;;;;;;;;;;;;;;;;;;5057373;28;20014;-52
2021/11/17 02:41:59;;;;;;;;;;;;;;;;;;5066810;28;19913;-51
2021/11/17 02:44:25;;;;;;;;;;;;;;;;;;5067070;28;20299;-48
2021/11/17 02:46:51;;;;;;;;;;;;;;;;;;5066448;28;19908;-49
2021/11/17 02:49:17;;;;;;;;;;;;;;;;;;5065220;28;20660;-49
2021/11/17 02:51:43;;;;;;;;;;;;;;;;;;5066568;28;20398;-48
2021/11/17 02:54:09;;;;;;;;;;;;;;;;;;5066567;28;19912;-50
2021/11/17 02:56:35;;;;;;;;;;;;;;;;;;5066240;28;19913;-51
2021/11/17 02:59:01;;;;;;;;;;;;;;;;;;5065560;28;19920;-51
2021/11/17 03:01:27;;;;;;;;;;;;;;;;;;5056418;28;19913;-48
2021/11/17 03:03:53;;;;;;;;;;;;;;;;;;5046654;28;19908;-49
2021/11/17 03:06:19;;;;;;;;;;;;;;;;;;5046115;28;19913;-49
2021/11/17 03:08:45;;;;;;;;;;;;;;;;;;5046940;28;19913;-51
2021/11/17 03:11:10;;;;;;;;;;;;;;;;;;5066211;28;19924;-48
2021/11/17 03:13:36;;;;;;;;;;;;;;;;;;5066339;28;20003;-52
2021/11/17 03:16:02;;;;;;;;;;;;;;;;;;5066420;28;19923;-50
2021/11/17 03:18:28;;;;;;;;;;;;;;;;;;5066012;28;19909;-48
2021/11/17 03:20:54;;;;;;;;;;;;;;;;;;5065606;28;20003;-49
2021/11/17 03:23:20;;;;;;;;;;;;;;;;;;5066016;28;20003;-52
2021/11/17 03:25:46;;;;;;;;;;;;;;;;;;5065291;28;19916;-49
2021/11/17 03:28:12;;;;;;;;;;;;;;;;;;5065855;28;19909;-48
2021/11/17 03:30:38;;;;;;;;;;;;;;;;;;5064907;28;19916;-49
2021/11/17 03:33:04;;;;;;;;;;;;;;;;;;5066036;28;19962;-51
2021/11/17 03:35:30;;;;;;;;;;;;;;;;;;5067641;28;19912;-51
2021/11/17 03:37:56;;;;;;;;;;;;;;;;;;5070575;28;19909;-49
2021/11/17 03:40:21;;;;;;;;;;;;;;;;;;5068191;28;20007;-48
2021/11/17 03:42:47;;;;;;;;;;;;;;;;;;5068584;28;19948;-48
2021/11/17 03:45:13;;;;;;;;;;;;;;;;;;5068738;28;19918;-50
2021/11/17 03:47:40;;;;;;;;;;;;;;;;;;5067942;28;19918;-48
2021/11/17 03:50:06;;;;;;;;;;;;;;;;;;5069650;28;19971;-49
2021/11/17 03:52:32;;;;;;;;;;;;;;;;;;5069439;28;19948;-52
2021/11/17 03:54:58;;;;;;;;;;;;;;;;;;5067550;28;19920;-50
2021/11/17 03:57:24;;;;;;;;;;;;;;;;;;5068293;28;20007;-50
2021/11/17 03:59:50;;;;;;;;;;;;;;;;;;5069427;28;19920;-52
2021/11/17 04:02:16;;;;;;;;;;;;;;;;;;5068844;28;19999;-51
2021/11/17 04:04:42;;;;;;;;;;;;;;;;;;5069176;28;19908;-48
2021/11/17 04:07:08;;;;;;;;;;;;;;;;;;5068169;28;19974;-48
2021/11/17 04:09:35;;;;;;;;;;;;;;;;;;5068175;28;19912;-51
2021/11/17 04:12:01;;;;;;;;;;;;;;;;;;5069143;28;19921;-48
2021/11/17 04:14:27;;;;;;;;;;;;;;;;;;5069528;28;20475;-49
2021/11/17 04:16:53;;;;;;;;;;;;;;;;;;5068540;28;19996;-51
2021/11/17 04:19:19;;;;;;;;;;;;;;;;;;5068862;28;19938;-48
2021/11/17 04:21:45;;;;;;;;;;;;;;;;;;5067911;28;19938;-48
2021/11/17 04:24:11;;;;;;;;;;;;;;;;;;5068937;28;19916;-51
2021/11/17 04:26:36;;;;;;;;;;;;;;;;;;5067989;28;19920;-51
2021/11/17 04:29:02;;;;;;;;;;;;;;;;;;5068938;28;19970;-49
2021/11/17 04:31:28;;;;;;;;;;;;;;;;;;5068563;28;19908;-52
2021/11/17 04:33:54;;;;;;;;;;;;;;;;;;5069407;28;19920;-53
2021/11/17 04:36:20;;;;;;;;;;;;;;;;;;5067469;28;19970;-51
2021/11/17 04:38:47;;;;;;;;;;;;;;;;;;5068706;28;19999;-52
2021/11/17 04:41:12;;;;;;;;;;;;;;;;;;5068442;28;20014;-50
2021/11/17 04:43:38;;;;;;;;;;;;;;;;;;5068760;28;19917;-50
2021/11/17 04:46:04;;;;;;;;;;;;;;;;;;5066560;28;19981;-49
2021/11/17 04:48:30;;;;;;;;;;;;;;;;;;5067830;28;19916;-53
2021/11/17 04:50:56;;;;;;;;;;;;;;;;;;5069325;28;19915;-52
2021/11/17 04:53:22;;;;;;;;;;;;;;;;;;5068652;28;19908;-51
2021/11/17 04:55:48;;;;;;;;;;;;;;;;;;5065705;28;19919;-49
2021/11/17 04:58:14;;;;;;;;;;;;;;;;;;5048104;28;19955;-52
2021/11/17 05:00:40;;;;;;;;;;;;;;;;;;5048423;28;19921;-48
2021/11/17 05:03:07;;;;;;;;;;;;;;;;;;5048232;28;19920;-53
2021/11/17 05:05:33;;;;;;;;;;;;;;;;;;5063991;28;19919;-50
2021/11/17 05:07:59;;;;;;;;;;;;;;;;;;5064570;28;20007;-51
2021/11/17 05:10:24;;;;;;;;;;;;;;;;;;5066802;28;20012;-51
2021/11/17 05:12:51;;;;;;;;;;;;;;;;;;5068031;28;20380;-52
2021/11/17 05:15:17;;;;;;;;;;;;;;;;;;5067121;28;19913;-51
2021/11/17 05:17:42;;;;;;;;;;;;;;;;;;5061658;28;19980;-52
2021/11/17 05:20:08;;;;;;;;;;;;;;;;;;5068135;28;19959;-51
2021/11/17 05:22:34;;;;;;;;;;;;;;;;;;5067257;28;19931;-50
2021/11/17 05:25:00;;;;;;;;;;;;;;;;;;5054362;28;19916;-49
2021/11/17 05:27:26;;;;;;;;;;;;;;;;;;5066951;28;19922;-49
2021/11/17 05:29:52;;;;;;;;;;;;;;;;;;5051416;28;19952;-52
2021/11/17 05:32:18;;;;;;;;;;;;;;;;;;5047203;28;19913;-48
2021/11/17 05:34:44;;;;;;;;;;;;;;;;;;5047355;28;19954;-49
2021/11/17 05:37:11;;;;;;;;;;;;;;;;;;5049844;28;19920;-48
2021/11/17 05:39:37;;;;;;;;;;;;;;;;;;5055952;28;20283;-49
2021/11/17 05:42:03;;;;;;;;;;;;;;;;;;5067378;28;19908;-49
2021/11/17 05:44:29;;;;;;;;;;;;;;;;;;5067168;28;19909;-52
2021/11/17 05:46:55;;;;;;;;;;;;;;;;;;5064207;28;20307;-49
2021/11/17 05:49:21;;;;;;;;;;;;;;;;;;5066926;28;19921;-51
2021/11/17 05:51:47;;;;;;;;;;;;;;;;;;5052426;28;20003;-52
2021/11/17 05:54:13;;;;;;;;;;;;;;;;;;5046150;28;19913;-49
2021/11/17 05:56:39;;;;;;;;;;;;;;;;;;5045692;28;20284;-48
2021/11/17 05:59:05;;;;;;;;;;;;;;;;;;5045447;28;19924;-53
2021/11/17 06:01:32;;;;;;;;;;;;;;;;;;5046915;28;19917;-50
2021/11/17 06:04:00;;;;;;;;;;;;;;;;;;5045248;28;19995;-48
2021/11/17 06:06:26;;;;;;;;;;;;;;;;;;5045274;28;19917;-49
2021/11/17 06:08:54;;;;;;;;;;;;;;;;;;5046098;28;20281;-47
2021/11/17 06:11:20;;;;;;;;;;;;;;;;;;5056236;28;20480;-47
2021/11/17 06:13:46;;;;;;;;;;;;;;;;;;5060332;28;19987;-49
2021/11/17 06:16:12;;;;;;;;;;;;;;;;;;5055774;28;19920;-48
2021/11/17 06:18:38;;;;;;;;;;;;;;;;;;5063574;28;20005;-49
2021/11/17 06:21:04;;;;;;;;;;;;;;;;;;5059507;28;19923;-48
2021/11/17 06:23:30;;;;;;;;;;;;;;;;;;5054218;28;20318;-49
2021/11/17 06:25:56;;;;;;;;;;;;;;;;;;5062134;28;19938;-51
2021/11/17 06:28:22;;;;;;;;;;;;;;;;;;5056571;28;19916;-47
2021/11/17 06:30:48;;;;;;;;;;;;;;;;;;5046705;28;20453;-48
2021/11/17 06:33:14;;;;;;;;;;;;;;;;;;5060316;28;19942;-49
2021/11/17 06:35:40;;;;;;;;;;;;;;;;;;5063098;28;20398;-48
2021/11/17 06:38:07;;;;;;;;;;;;;;;;;;5063237;28;20459;-48
2021/11/17 06:40:34;;;;;;;;;;;;;;;;;;5063039;28;19913;-53
2021/11/17 06:43:00;;;;;;;;;;;;;;;;;;5047329;28;19943;-51
2021/11/17 06:45:26;;;;;;;;;;;;;;;;;;5050142;28;19912;-49
2021/11/17 06:47:53;;;;;;;;;;;;;;;;;;5063483;28;20062;-51
2021/11/17 06:50:19;;;;;;;;;;;;;;;;;;5054018;28;20265;-52
2021/11/17 06:52:45;;;;;;;;;;;;;;;;;;5044951;28;19920;-49
2021/11/17 06:55:11;;;;;;;;;;;;;;;;;;5044599;28;19962;-49
2021/11/17 06:57:38;;;;;;;;;;;;;;;;;;5046468;28;19913;-49
2021/11/17 07:00:04;;;;;;;;;;;;;;;;;;5064323;28;19959;-48
2021/11/17 07:02:30;;;;;;;;;;;;;;;;;;5058022;28;19976;-50
2021/11/17 07:04:56;;;;;;;;;;;;;;;;;;5046188;28;20702;-48
2021/11/17 07:07:22;;;;;;;;;;;;;;;;;;5046484;28;19913;-50
2021/11/17 07:09:48;;;;;;;;;;;;;;;;;;5047188;28;19996;-49
2021/11/17 07:12:14;;;;;;;;;;;;;;;;;;5049309;28;19932;-49
2021/11/17 07:14:40;;;;;;;;;;;;;;;;;;5049727;28;19985;-50
2021/11/17 07:17:06;;;;;;;;;;;;;;;;;;5049625;28;20339;-50
2021/11/17 07:19:32;;;;;;;;;;;;;;;;;;5052020;28;19990;-51
2021/11/17 07:21:58;;;;;;;;;;;;;;;;;;5065659;28;19908;-48
2021/11/17 07:24:24;;;;;;;;;;;;;;;;;;5068079;28;20410;-49
2021/11/17 07:26:49;;;;;;;;;;;;;;;;;;5049993;28;19999;-47
2021/11/17 07:29:15;;;;;;;;;;;;;;;;;;5049432;28;19913;-49
2021/11/17 07:31:41;;;;;;;;;;;;;;;;;;5049697;28;19966;-51
2021/11/17 07:34:07;;;;;;;;;;;;;;;;;;5049800;28;19913;-48
2021/11/17 07:36:33;;;;;;;;;;;;;;;;;;5051379;28;19963;-49
2021/11/17 07:38:59;;;;;;;;;;;;;;;;;;5069843;28;19909;-47
2021/11/17 07:41:25;;;;;;;;;;;;;;;;;;5069496;28;20543;-49
2021/11/17 07:43:51;;;;;;;;;;;;;;;;;;5070232;28;20042;-49
2021/11/17 07:46:17;;;;;;;;;;;;;;;;;;5068718;28;19913;-51
2021/11/17 07:48:43;;;;;;;;;;;;;;;;;;5069600;28;19909;-48
2021/11/17 07:51:09;;;;;;;;;;;;;;;;;;5070767;28;19912;-47
2021/11/17 07:53:35;;;;;;;;;;;;;;;;;;5080627;28;19916;-49
2021/11/17 07:56:01;;;;;;;;;;;;;;;;;;5056966;28;20016;-48
2021/11/17 07:58:27;;;;;;;;;;;;;;;;;;5051969;28;19916;-51
2021/11/17 08:00:53;;;;;;;;;;;;;;;;;;5048991;28;19928;-49
2021/11/17 08:03:19;;;;;;;;;;;;;;;;;;5054453;28;19913;-48
2021/11/17 08:05:44;;;;;;;;;;;;;;;;;;5067642;28;20373;-47
2021/11/17 08:08:10;;;;;;;;;;;;;;;;;;5067599;28;20284;-49
2021/11/17 08:10:36;;;;;;;;;;;;;;;;;;5066317;28;19962;-48
2021/11/17 08:13:02;;;;;;;;;;;;;;;;;;5068046;28;20480;-48
2021/11/17 08:15:29;;;;;;;;;;;;;;;;;;5049943;28;19913;-48
2021/11/17 08:17:55;;;;;;;;;;;;;;;;;;5046838;28;19913;-48
2021/11/17 08:20:21;;;;;;;;;;;;;;;;;;5047197;28;20164;-48
2021/11/17 08:22:48;;;;;;;;;;;;;;;;;;5046537;28;19913;-49
2021/11/17 08:25:14;;;;;;;;;;;;;;;;;;5046596;28;20360;-47
2021/11/17 08:27:40;;;;;;;;;;;;;;;;;;5047186;28;19912;-47
2021/11/17 08:30:05;;;;;;;;;;;;;;;;;;5047708;28;19909;-49
2021/11/17 08:32:31;;;;;;;;;;;;;;;;;;5046297;28;20328;-47
2021/11/17 08:34:58;;;;;;;;;;;;;;;;;;5047095;28;19959;-48
2021/11/17 08:37:24;;;;;;;;;;;;;;;;;;5046736;28;20316;-47
2021/11/17 08:39:53;;;;;;;;;;;;;;;;;;5046942;28;19925;-48
2021/11/17 08:42:19;;;;;;;;;;;;;;;;;;5046674;28;19915;-48
2021/11/17 08:44:45;;;;;;;;;;;;;;;;;;5046222;28;19913;-48
2021/11/17 08:47:11;;;;;;;;;;;;;;;;;;5046152;28;20341;-48
2021/11/17 08:49:37;;;;;;;;;;;;;;;;;;5047572;28;19913;-47
2021/11/17 08:52:03;;;;;;;;;;;;;;;;;;5047056;28;19955;-48
2021/11/17 08:54:29;;;;;;;;;;;;;;;;;;5045447;28;19919;-48
2021/11/17 08:56:58;;;;;;;;;;;;;;;;;;5046839;28;20368;-48
2021/11/17 08:59:24;;;;;;;;;;;;;;;;;;5046106;28;20003;-48
2021/11/17 09:01:50;;;;;;;;;;;;;;;;;;5046644;28;20000;-48
2021/11/17 09:04:15;;;;;;;;;;;;;;;;;;5044992;28;19999;-48
2021/11/17 09:06:42;;;;;;;;;;;;;;;;;;5046651;28;20437;-49
2021/11/17 09:09:08;;;;;;;;;;;;;;;;;;5046823;28;19962;-48
2021/11/17 09:11:34;;;;;;;;;;;;;;;;;;5046868;28;19921;-49
2021/11/17 09:14:00;;;;;;;;;;;;;;;;;;5046071;28;19916;-47
2021/11/17 09:16:30;;;;;;;;;;;;;;;;;;5046177;28;20181;-48
2021/11/17 09:18:56;;;;;;;;;;;;;;;;;;5046159;28;19905;-47
2021/11/17 09:21:22;;;;;;;;;;;;;;;;;;5046119;28;20307;-48
2021/11/17 09:23:47;;;;;;;;;;;;;;;;;;5046092;28;19912;-49
2021/11/17 09:26:14;;;;;;;;;;;;;;;;;;5046061;28;20086;-47
2021/11/17 09:28:41;;;;;;;;;;;;;;;;;;5044612;28;20411;-48
2021/11/17 09:31:07;;;;;;;;;;;;;;;;;;5046874;28;20179;-49
2021/11/17 09:33:33;;;;;;;;;;;;;;;;;;5045557;28;20013;-47
2021/11/17 09:35:59;;;;;;;;;;;;;;;;;;5045988;28;19919;-48
2021/11/17 09:38:25;;;;;;;;;;;;;;;;;;5045770;28;19910;-48
2021/11/17 09:40:51;;;;;;;;;;;;;;;;;;5045856;28;19917;-48
2021/11/17 09:43:18;;;;;;;;;;;;;;;;;;5045556;28;19909;-47
2021/11/17 09:45:44;;;;;;;;;;;;;;;;;;5045628;28;20250;-48
2021/11/17 09:48:11;;;;;;;;;;;;;;;;;;5045364;28;20020;-49
2021/11/17 09:50:37;;;;;;;;;;;;;;;;;;5046338;28;19908;-47
2021/11/17 09:53:02;;;;;;;;;;;;;;;;;;5045683;28;19919;-48
2021/11/17 09:55:29;;;;;;;;;;;;;;;;;;5045210;28;19913;-47
2021/11/17 09:57:55;;;;;;;;;;;;;;;;;;5044285;28;20316;-49
2021/11/17 10:00:21;;;;;;;;;;;;;;;;;;5045080;28;19917;-48
2021/11/17 10:02:47;;;;;;;;;;;;;;;;;;5045546;28;20000;-49
2021/11/17 10:05:13;;;;;;;;;;;;;;;;;;5044977;28;20391;-50
2021/11/17 10:13:19;;;;;;;;;;;;;;;;;;5063673;28;19973;-49
2021/11/17 10:15:22;;;;;;;;;;;;;;;;;;5064953;28;20086;-48
2021/11/17 10:17:48;;;;;;;;;;;;;;;;;;5066116;28;20034;-49
2021/11/17 10:20:14;;;;;;;;;;;;;;;;;;5065139;28;19916;-47
2021/11/17 10:22:40;;;;;;;;;;;;;;;;;;5065104;28;20452;-49
2021/11/17 10:25:06;;;;;;;;;;;;;;;;;;5065300;28;19909;-47
2021/11/17 10:27:32;;;;;;;;;;;;;;;;;;5064797;28;20135;-48
2021/11/17 10:29:58;;;;;;;;;;;;;;;;;;5065336;28;20261;-50
2021/11/17 10:32:25;;;;;;;;;;;;;;;;;;5064852;28;20276;-48
2021/11/17 10:34:51;;;;;;;;;;;;;;;;;;5064914;28;19967;-49
2021/11/17 10:37:18;;;;;;;;;;;;;;;;;;5065402;28;19909;-48
2021/11/17 10:39:44;;;;;;;;;;;;;;;;;;5064870;28;19994;-48
2021/11/17 10:42:10;;;;;;;;;;;;;;;;;;5064967;28;19950;-49
2021/11/17 10:44:36;;;;;;;;;;;;;;;;;;5064478;28;19920;-48
2021/11/17 10:47:01;;;;;;;;;;;;;;;;;;5064538;28;19912;-48
2021/11/17 10:49:27;;;;;;;;;;;;;;;;;;5064412;28;19954;-48
2021/11/17 10:51:53;;;;;;;;;;;;;;;;;;5064915;28;19919;-47
2021/11/17 10:54:19;;;;;;;;;;;;;;;;;;5065449;28;20356;-48
2021/11/17 10:56:46;;;;;;;;;;;;;;;;;;5064935;28;20537;-47
2021/11/17 10:59:13;;;;;;;;;;;;;;;;;;5064433;28;19994;-48
2021/11/17 11:01:39;;;;;;;;;;;;;;;;;;5065009;28;20502;-49
2021/11/17 11:04:06;;;;;;;;;;;;;;;;;;5064754;28;19916;-48
2021/11/17 11:06:31;;;;;;;;;;;;;;;;;;5064690;28;19919;-48
2021/11/17 11:08:57;;;;;;;;;;;;;;;;;;5064795;28;19908;-49
2021/11/17 11:11:23;;;;;;;;;;;;;;;;;;5064273;28;20280;-48
2021/11/17 11:13:50;;;;;;;;;;;;;;;;;;5064854;28;19959;-48
2021/11/17 11:16:16;;;;;;;;;;;;;;;;;;5064801;28;20292;-49
2021/11/17 11:18:42;;;;;;;;;;;;;;;;;;5064541;28;19923;-48
2021/11/17 11:21:08;;;;;;;;;;;;;;;;;;5064788;28;19913;-48
2021/11/17 11:23:34;;;;;;;;;;;;;;;;;;5064359;28;19912;-48
2021/11/17 11:26:00;;;;;;;;;;;;;;;;;;5064692;28;19912;-48
2021/11/17 11:28:25;;;;;;;;;;;;;;;;;;5064122;28;19923;-48
2021/11/17 11:30:51;;;;;;;;;;;;;;;;;;5064694;28;19908;-47
2021/11/17 11:33:17;;;;;;;;;;;;;;;;;;5064693;28;19913;-47
2021/11/17 11:35:44;;;;;;;;;;;;;;;;;;5064468;28;19915;-49
2021/11/17 11:38:10;;;;;;;;;;;;;;;;;;5064790;28;20360;-47
2021/11/17 11:40:36;;;;;;;;;;;;;;;;;;5064368;28;19993;-49
2021/11/17 11:43:02;;;;;;;;;;;;;;;;;;5064231;28;19918;-48
2021/11/17 11:45:28;;;;;;;;;;;;;;;;;;5063882;28;20388;-48
2021/11/17 11:47:54;;;;;;;;;;;;;;;;;;5063810;28;19913;-49
2021/11/17 11:50:20;;;;;;;;;;;;;;;;;;5064439;28;19970;-48
2021/11/17 11:52:46;;;;;;;;;;;;;;;;;;5064532;28;20412;-49
2021/11/17 11:55:12;;;;;;;;;;;;;;;;;;5064381;28;20375;-48
2021/11/17 11:57:38;;;;;;;;;;;;;;;;;;5067720;28;19909;-48
2021/11/17 12:00:04;;;;;;;;;;;;;;;;;;5067978;28;19917;-48
2021/11/17 12:02:30;;;;;;;;;;;;;;;;;;5067263;28;19916;-49
2021/11/17 12:04:56;;;;;;;;;;;;;;;;;;5067984;28;19938;-47
2021/11/17 12:07:24;;;;;;;;;;;;;;;;;;5067738;28;19912;-48
2021/11/17 12:09:50;;;;;;;;;;;;;;;;;;5068123;28;19912;-48
2021/11/17 12:12:16;;;;;;;;;;;;;;;;;;5058662;28;19916;-49
2021/11/17 12:14:45;;;;;;;;;;;;;;;;;;5047543;28;19912;-50
2021/11/17 12:17:12;;;;;;;;;;;;;;;;;;5047332;28;19924;-52
2021/11/17 12:19:39;;;;;;;;;;;;;;;;;;5047593;28;19909;-48
2021/11/17 12:22:06;;;;;;;;;;;;;;;;;;5047792;28;20334;-48
2021/11/17 12:24:32;;;;;;;;;;;;;;;;;;5047359;28;19909;-48
2021/11/17 12:26:58;;;;;;;;;;;;;;;;;;5047535;28;20300;-47
2021/11/17 12:29:24;;;;;;;;;;;;;;;;;;5047154;28;19934;-47
2021/11/17 12:31:51;;;;;;;;;;;;;;;;;;5047849;28;19912;-47
2021/11/17 12:34:17;;;;;;;;;;;;;;;;;;5047656;28;19998;-48
2021/11/17 12:36:43;;;;;;;;;;;;;;;;;;5047324;28;19917;-48
2021/11/17 12:39:09;;;;;;;;;;;;;;;;;;5047334;28;20070;-50
2021/11/17 12:41:36;;;;;;;;;;;;;;;;;;5046554;28;20295;-48
2021/11/17 12:44:02;;;;;;;;;;;;;;;;;;5047049;28;19967;-48
2021/11/17 12:46:29;;;;;;;;;;;;;;;;;;5046212;28;19909;-49
2021/11/17 12:48:55;;;;;;;;;;;;;;;;;;5047444;28;19912;-48
2021/11/17 12:51:21;;;;;;;;;;;;;;;;;;5047383;28;20223;-48
2021/11/17 12:53:46;;;;;;;;;;;;;;;;;;5047744;28;19909;-48
2021/11/17 12:56:14;;;;;;;;;;;;;;;;;;5046606;28;20427;-47
2021/11/17 12:58:40;;;;;;;;;;;;;;;;;;5047032;28;19913;-48
2021/11/17 13:01:05;;;;;;;;;;;;;;;;;;5046742;28;20051;-48
2021/11/17 13:03:31;;;;;;;;;;;;;;;;;;5045063;28;19913;-48
2021/11/17 13:05:57;;;;;;;;;;;;;;;;;;5046737;28;19905;-49
2021/11/17 13:08:23;;;;;;;;;;;;;;;;;;5045900;28;19952;-48
2021/11/17 13:10:50;;;;;;;;;;;;;;;;;;5047271;28;20268;-48
2021/11/17 13:13:16;;;;;;;;;;;;;;;;;;5046277;28;19963;-48
2021/11/17 13:15:41;;;;;;;;;;;;;;;;;;5046291;28;19912;-48
2021/11/17 13:18:07;;;;;;;;;;;;;;;;;;5046658;28;19909;-48
2021/11/17 13:20:33;;;;;;;;;;;;;;;;;;5046380;28;19916;-48
2021/11/17 13:23:00;;;;;;;;;;;;;;;;;;5046464;28;19913;-49
2021/11/17 13:25:26;;;;;;;;;;;;;;;;;;5046135;28;19909;-48
2021/11/17 13:27:54;;;;;;;;;;;;;;;;;;5045445;28;20130;-49
2021/11/17 13:30:20;;;;;;;;;;;;;;;;;;5046532;28;19916;-48
2021/11/17 13:32:46;;;;;;;;;;;;;;;;;;5046276;28;20012;-50
2021/11/17 13:35:11;;;;;;;;;;;;;;;;;;5045847;28;19921;-48
2021/11/17 13:37:37;;;;;;;;;;;;;;;;;;5046155;28;20525;-47
2021/11/17 13:40:03;;;;;;;;;;;;;;;;;;5046053;28;19999;-49
2021/11/17 13:42:29;;;;;;;;;;;;;;;;;;5046134;28;19934;-49
2021/11/17 13:44:56;;;;;;;;;;;;;;;;;;5045706;28;19920;-47
2021/11/17 13:47:23;;;;;;;;;;;;;;;;;;5045253;28;20426;-49
2021/11/17 13:49:51;;;;;;;;;;;;;;;;;;5046716;28;20199;-48
2021/11/17 13:52:18;;;;;;;;;;;;;;;;;;5046395;28;20374;-48
2021/11/17 13:54:44;;;;;;;;;;;;;;;;;;5045807;28;19909;-50
2021/11/17 13:57:10;;;;;;;;;;;;;;;;;;5045431;28;19917;-48
2021/11/17 13:59:37;;;;;;;;;;;;;;;;;;5046062;28;19912;-48
2021/11/17 14:02:04;;;;;;;;;;;;;;;;;;5045677;28;20287;-47
2021/11/17 14:04:30;;;;;;;;;;;;;;;;;;5045194;28;20002;-48
2021/11/17 14:06:56;;;;;;;;;;;;;;;;;;5045805;28;19948;-47
2021/11/17 14:09:23;;;;;;;;;;;;;;;;;;5045404;28;20331;-49
2021/11/17 14:11:49;;;;;;;;;;;;;;;;;;5045893;28;20011;-47
2021/11/17 14:14:15;;;;;;;;;;;;;;;;;;5045073;28;20353;-48
2021/11/17 14:16:41;;;;;;;;;;;;;;;;;;5045427;28;19963;-48
2021/11/17 14:19:06;;;;;;;;;;;;;;;;;;5044717;28;20249;-47
2021/11/17 14:21:32;;;;;;;;;;;;;;;;;;5045128;28;20384;-48
2021/11/17 14:23:58;;;;;;;;;;;;;;;;;;5053758;28;19912;-49
2021/11/17 14:26:24;;;;;;;;;;;;;;;;;;5064517;28;19935;-48
2021/11/17 14:28:50;;;;;;;;;;;;;;;;;;5057695;28;19924;-51
2021/11/17 14:31:18;;;;;;;;;;;;;;;;;;5051834;28;19912;-51
2021/11/17 14:33:47;;;;;;;;;;;;;;;;;;5056325;28;19961;-52
2021/11/17 14:36:13;;;;;;;;;;;;;;;;;;5062297;28;19913;-51
2021/11/17 14:38:39;;;;;;;;;;;;;;;;;;5046662;28;19925;-49
2021/11/17 14:41:05;;;;;;;;;;;;;;;;;;5046429;28;20478;-50
2021/11/17 14:43:31;;;;;;;;;;;;;;;;;;5046168;28;20040;-49
2021/11/17 14:45:58;;;;;;;;;;;;;;;;;;5046624;28;19913;-51
2021/11/17 14:48:24;;;;;;;;;;;;;;;;;;5060048;28;19912;-47
2021/11/17 14:50:50;;;;;;;;;;;;;;;;;;5050375;28;19943;-48
2021/11/17 14:53:16;;;;;;;;;;;;;;;;;;5060724;28;19920;-48
2021/11/17 14:55:42;;;;;;;;;;;;;;;;;;5046164;28;20368;-49
2021/11/17 14:58:08;;;;;;;;;;;;;;;;;;5046506;28;19912;-48
2021/11/17 15:00:34;;;;;;;;;;;;;;;;;;5044715;28;19913;-47
2021/11/17 15:03:00;;;;;;;;;;;;;;;;;;5047567;28;19927;-48
2021/11/17 15:05:27;;;;;;;;;;;;;;;;;;5057692;28;20349;-51
2021/11/17 15:07:53;;;;;;;;;;;;;;;;;;5069714;28;19917;-49
2021/11/17 15:10:19;;;;;;;;;;;;;;;;;;5050546;28;19912;-48
2021/11/17 15:12:45;;;;;;;;;;;;;;;;;;5044478;28;19916;-47
2021/11/17 15:15:10;;;;;;;;;;;;;;;;;;5045025;28;19935;-50
2021/11/17 15:17:36;;;;;;;;;;;;;;;;;;5044876;28;19994;-47
2021/11/17 15:20:02;;;;;;;;;;;;;;;;;;5044914;28;19917;-47
2021/11/17 15:22:28;;;;;;;;;;;;;;;;;;5044555;28;19909;-48
2021/11/17 15:24:54;;;;;;;;;;;;;;;;;;5044398;28;20361;-52
2021/11/17 15:27:20;;;;;;;;;;;;;;;;;;5045353;28;19916;-48
2021/11/17 15:29:46;;;;;;;;;;;;;;;;;;5043340;28;19913;-48
2021/11/17 15:32:12;;;;;;;;;;;;;;;;;;5047590;28;19913;-51
2021/11/17 15:34:38;;;;;;;;;;;;;;;;;;5048501;28;19948;-50
2021/11/17 15:37:06;;;;;;;;;;;;;;;;;;5048603;28;19916;-48
2021/11/17 15:39:32;;;;;;;;;;;;;;;;;;5047702;28;19956;-49
2021/11/17 15:41:58;;;;;;;;;;;;;;;;;;5048562;28;20367;-48
2021/11/17 15:44:24;;;;;;;;;;;;;;;;;;5047973;28;19927;-47
2021/11/17 15:46:50;;;;;;;;;;;;;;;;;;5048341;28;20376;-48
2021/11/17 15:49:17;;;;;;;;;;;;;;;;;;5048198;28;19924;-51
2021/11/17 15:51:47;;;;;;;;;;;;;;;;;;5048037;28;20410;-48
2021/11/17 15:54:13;;;;;;;;;;;;;;;;;;5048023;28;20370;-47
2021/11/17 15:56:40;;;;;;;;;;;;;;;;;;5048037;28;19912;-49
2021/11/17 15:59:06;;;;;;;;;;;;;;;;;;5048201;28;20000;-47
2021/11/17 16:01:32;;;;;;;;;;;;;;;;;;5047787;28;20035;-47
2021/11/17 16:03:58;;;;;;;;;;;;;;;;;;5046687;28;19909;-48
2021/11/17 16:06:25;;;;;;;;;;;;;;;;;;5054180;28;19916;-48
2021/11/17 16:08:51;;;;;;;;;;;;;;;;;;5068519;28;19913;-48
2021/11/17 16:11:17;;;;;;;;;;;;;;;;;;5066253;28;19921;-48
2021/11/17 16:13:44;;;;;;;;;;;;;;;;;;5067635;28;19919;-48
2021/11/17 16:16:10;;;;;;;;;;;;;;;;;;5067585;28;19913;-47
2021/11/17 16:18:36;;;;;;;;;;;;;;;;;;5067463;28;20249;-47
2021/11/17 16:21:03;;;;;;;;;;;;;;;;;;5067100;28;20316;-48
2021/11/17 16:25:55;;;;;;;;;;;;;;;;;;5067799;28;19905;-47
2021/11/17 16:28:22;;;;;;;;;;;;;;;;;;5067218;28;19914;-49
2021/11/17 16:30:47;;;;;;;;;;;;;;;;;;5067351;28;19969;-48
2021/11/17 16:33:15;;;;;;;;;;;;;;;;;;5066249;28;20330;-49
2021/11/17 16:35:41;;;;;;;;;;;;;;;;;;5066916;28;19955;-48
2021/11/17 16:38:07;;;;;;;;;;;;;;;;;;5063328;28;20319;-51
2021/11/17 16:40:33;;;;;;;;;;;;;;;;;;5058005;28;20057;-52
2021/11/17 16:42:59;;;;;;;;;;;;;;;;;;5049094;28;19913;-49
2021/11/17 16:45:26;;;;;;;;;;;;;;;;;;5047326;28;19916;-47
2021/11/17 16:47:52;;;;;;;;;;;;;;;;;;5046602;28;19990;-48
2021/11/17 16:50:17;;;;;;;;;;;;;;;;;;5052961;28;20366;-48
2021/11/17 16:52:44;;;;;;;;;;;;;;;;;;5067080;28;19915;-51
2021/11/17 16:55:12;;;;;;;;;;;;;;;;;;5060532;28;19917;-47
2021/11/17 16:57:38;;;;;;;;;;;;;;;;;;5046935;28;20276;-48
2021/11/17 17:00:04;;;;;;;;;;;;;;;;;;5050354;28;19917;-47
2021/11/17 17:02:30;;;;;;;;;;;;;;;;;;5046962;28;19923;-48
2021/11/17 17:04:57;;;;;;;;;;;;;;;;;;5052590;28;20303;-50
2021/11/17 17:07:23;;;;;;;;;;;;;;;;;;5066953;28;19940;-51
2021/11/17 17:09:50;;;;;;;;;;;;;;;;;;5067985;28;19952;-48
2021/11/17 17:12:21;;;;;;;;;;;;;;;;;;5065199;28;19970;-48
2021/11/17 17:14:47;;;;;;;;;;;;;;;;;;5067852;28;19958;-48
2021/11/17 17:17:13;;;;;;;;;;;;;;;;;;5052770;28;19917;-52
2021/11/17 17:19:39;;;;;;;;;;;;;;;;;;5058154;28;19982;-48
2021/11/17 17:22:05;;;;;;;;;;;;;;;;;;5050067;28;19912;-48
2021/11/17 17:24:31;;;;;;;;;;;;;;;;;;5051789;28;19924;-48
2021/11/17 17:26:57;;;;;;;;;;;;;;;;;;5061976;28;19913;-48
2021/11/17 17:29:28;;;;;;;;;;;;;;;;;;5065864;28;19916;-48
2021/11/17 17:31:54;;;;;;;;;;;;;;;;;;5055377;28;19958;-48
2021/11/17 17:34:20;;;;;;;;;;;;;;;;;;5047186;28;19925;-49
2021/11/17 17:36:46;;;;;;;;;;;;;;;;;;5057773;28;20053;-48
2021/11/17 17:39:12;;;;;;;;;;;;;;;;;;5065836;28;19916;-51
2021/11/17 17:41:38;;;;;;;;;;;;;;;;;;5056458;28;19918;-47
2021/11/17 17:44:04;;;;;;;;;;;;;;;;;;5064180;28;19916;-48
2021/11/17 17:46:30;;;;;;;;;;;;;;;;;;5052828;28;19962;-47
2021/11/17 17:48:57;;;;;;;;;;;;;;;;;;5056677;28;20350;-48
2021/11/17 17:51:23;;;;;;;;;;;;;;;;;;5049286;28;19939;-49
2021/11/17 17:53:49;;;;;;;;;;;;;;;;;;5046344;28;19916;-50
2021/11/17 17:56:15;;;;;;;;;;;;;;;;;;5054403;28;19912;-48
2021/11/17 17:58:41;;;;;;;;;;;;;;;;;;5066890;28;20020;-49
2021/11/17 18:01:07;;;;;;;;;;;;;;;;;;5066753;28;19920;-51
2021/11/17 18:03:33;;;;;;;;;;;;;;;;;;5061279;28;19912;-51
2021/11/17 18:05:59;;;;;;;;;;;;;;;;;;5065306;28;19912;-50
2021/11/17 18:08:25;;;;;;;;;;;;;;;;;;5051323;28;20545;-49
2021/11/17 18:10:51;;;;;;;;;;;;;;;;;;5065610;28;19920;-51
2021/11/17 18:13:17;;;;;;;;;;;;;;;;;;5052179;28;20456;-50
2021/11/17 18:15:46;;;;;;;;;;;;;;;;;;5044535;28;19912;-48
2021/11/17 18:18:12;;;;;;;;;;;;;;;;;;5044839;28;19956;-50
2021/11/17 18:20:38;;;;;;;;;;;;;;;;;;5051700;28;19959;-52
2021/11/17 18:23:07;;;;;;;;;;;;;;;;;;5055386;28;20299;-49
2021/11/17 18:25:32;;;;;;;;;;;;;;;;;;5059485;28;19916;-49
2021/11/17 18:27:58;;;;;;;;;;;;;;;;;;5044781;28;19967;-50
2021/11/17 18:30:25;;;;;;;;;;;;;;;;;;5060305;28;19912;-50
2021/11/17 18:32:51;;;;;;;;;;;;;;;;;;5057662;28;19912;-48
2021/11/17 18:35:17;;;;;;;;;;;;;;;;;;5054334;28;20370;-49
2021/11/17 18:37:43;;;;;;;;;;;;;;;;;;5065231;28;19912;-49
2021/11/17 18:40:09;;;;;;;;;;;;;;;;;;5066926;28;19912;-50
2021/11/17 18:42:36;;;;;;;;;;;;;;;;;;5064147;28;19948;-53
2021/11/17 18:45:03;;;;;;;;;;;;;;;;;;5065007;28;19913;-53
2021/11/17 18:47:29;;;;;;;;;;;;;;;;;;5060598;28;19913;-51
2021/11/17 18:49:57;;;;;;;;;;;;;;;;;;5047947;28;19958;-52
2021/11/17 18:52:23;;;;;;;;;;;;;;;;;;5059112;28;19917;-52
2021/11/17 18:54:49;;;;;;;;;;;;;;;;;;5058845;28;19916;-53
2021/11/17 18:57:15;;;;;;;;;;;;;;;;;;5065802;28;19981;-48
2021/11/17 18:59:41;;;;;;;;;;;;;;;;;;5050377;28;19923;-51
2021/11/17 19:02:07;;;;;;;;;;;;;;;;;;5054744;28;20011;-50
2021/11/17 19:04:33;;;;;;;;;;;;;;;;;;5051876;28;19977;-52
2021/11/17 19:06:59;;;;;;;;;;;;;;;;;;5056947;28;19913;-52
2021/11/17 19:09:26;;;;;;;;;;;;;;;;;;5057685;28;19916;-52
2021/11/17 19:11:52;;;;;;;;;;;;;;;;;;5054232;28;19917;-52